createdAt,value
2023-07-18T00:05:02.105Z,63.21
2023-07-18T00:10:05.249Z,61.10
2023-07-18T00:15:10.783Z,59.62
2023-07-18T00:20:15.130Z,58.48
2023-07-18T00:25:20.765Z,65.48
2023-07-18T00:30:23.810Z,63.52
2023-07-18T00:35:28.270Z,59.80
2023-07-18T00:40:31.090Z,60.49
2023-07-18T00:45:33.816Z,64.26
2023-07-18T00:50:37.752Z,64.03
2023-07-18T00:55:41.447Z,62.61
2023-07-18T01:00:44.203Z,61.00
2023-07-18T01:05:46.888Z,57.56
2023-07-18T01:10:50.011Z,61.28
2023-07-18T01:15:53.142Z,67.90
2023-07-18T01:20:56.458Z,62.61
2023-07-18T01:25:59.205Z,59.86
2023-07-18T01:31:01.943Z,58.35
2023-07-18T01:36:04.898Z,65.09
2023-07-18T01:41:08.648Z,62.83
2023-07-18T01:46:11.397Z,58.81
2023-07-18T01:51:14.781Z,61.23
2023-07-18T01:56:17.533Z,66.40
2023-07-18T02:01:20.514Z,61.63
2023-07-18T02:06:26.245Z,60.34
2023-07-18T02:11:29.015Z,57.23
2023-07-18T02:16:32.004Z,63.07
2023-07-18T02:21:34.749Z,62.74
2023-07-18T02:26:37.701Z,61.65
2023-07-18T02:31:40.956Z,58.78
2023-07-18T02:36:43.752Z,61.48
2023-07-18T02:41:46.427Z,64.31
2023-07-18T02:46:49.265Z,59.75
2023-07-18T02:51:51.926Z,64.79
2023-07-18T02:56:54.682Z,61.48
2023-07-18T03:02:00.326Z,59.80
2023-07-18T03:07:04.366Z,62.99
2023-07-18T03:12:07.797Z,63.72
2023-07-18T03:17:12.565Z,60.60
2023-07-18T03:22:15.961Z,64.33
2023-07-18T03:27:19.452Z,62.02
2023-07-18T03:32:22.189Z,60.47
2023-07-18T03:37:26.949Z,61.29
2023-07-18T03:42:29.659Z,64.87
2023-07-18T03:47:32.724Z,62.44
2023-07-18T03:52:35.552Z,60.98
2023-07-18T03:57:38.848Z,60.16
2023-07-18T04:02:47.189Z,60.23
2023-07-18T04:07:50.516Z,63.64
2023-07-18T04:12:53.335Z,60.84
2023-07-18T04:17:56.077Z,60.00
2023-07-18T04:22:59.233Z,59.81
2023-07-18T04:28:02.442Z,63.86
2023-07-18T04:33:05.119Z,62.25
2023-07-18T04:38:07.908Z,61.58
2023-07-18T04:43:11.097Z,60.76
2023-07-18T04:48:18.321Z,60.24
2023-07-18T04:53:21.058Z,60.38
2023-07-18T04:58:28.452Z,62.62
2023-07-18T05:03:41.007Z,60.15
2023-07-18T05:08:55.221Z,60.20
2023-07-18T05:13:58.100Z,62.34
2023-07-18T05:19:00.742Z,59.91
2023-07-18T05:24:03.669Z,63.96
2023-07-18T05:29:06.385Z,61.41
2023-07-18T05:34:09.077Z,58.45
2023-07-18T05:39:12.500Z,62.16
2023-07-18T05:44:17.776Z,59.57
2023-07-18T05:49:20.577Z,62.49
2023-07-18T05:54:23.970Z,59.57
2023-07-18T05:59:31.793Z,62.83
2023-07-18T06:04:36.425Z,59.07
2023-07-18T06:09:39.877Z,61.45
2023-07-18T06:14:42.636Z,59.67
2023-07-18T06:19:47.683Z,61.94
2023-07-18T06:24:50.547Z,59.64
2023-07-18T06:29:53.554Z,61.96
2023-07-18T06:34:58.591Z,58.72
2023-07-18T06:40:04.104Z,61.19
2023-07-18T06:45:08.168Z,58.48
2023-07-18T06:50:12.555Z,61.03
2023-07-18T06:55:15.277Z,59.93
2023-07-18T07:00:21.373Z,60.29
2023-07-18T07:05:24.154Z,61.58
2023-07-18T07:10:27.175Z,61.74
2023-07-18T07:15:29.897Z,59.41
2023-07-18T07:20:34.082Z,57.58
2023-07-18T07:25:36.822Z,60.00
2023-07-18T07:30:39.754Z,61.06
2023-07-18T07:35:44.612Z,60.27
2023-07-18T07:40:47.341Z,61.90
2023-07-18T07:45:50.132Z,59.32
2023-07-18T07:50:52.849Z,58.89
2023-07-18T07:55:55.598Z,60.08
2023-07-18T08:00:58.321Z,58.78
2023-07-18T08:06:01.823Z,57.56
2023-07-18T08:11:04.980Z,58.09
2023-07-18T08:16:07.792Z,57.27
2023-07-18T08:21:10.535Z,57.27
2023-07-18T08:26:13.806Z,56.45
2023-07-18T08:31:16.585Z,55.83
2023-07-18T08:36:19.396Z,56.54
2023-07-18T08:41:23.018Z,54.78
2023-07-18T08:46:27.197Z,54.49
2023-07-18T08:51:31.854Z,55.55
2023-07-18T08:56:34.660Z,53.43
2023-07-18T09:01:52.561Z,54.15
2023-07-18T09:07:04.080Z,54.56
2023-07-18T09:12:07.543Z,55.81
2023-07-18T09:17:10.512Z,54.44
2023-07-18T09:22:15.211Z,53.94
2023-07-18T09:27:21.184Z,55.05
2023-07-18T09:32:24.886Z,54.27
2023-07-18T09:37:28.604Z,53.34
2023-07-18T09:42:33.493Z,51.46
2023-07-18T09:47:37.213Z,50.93
2023-07-18T09:52:51.551Z,50.09
2023-07-18T09:57:56.395Z,50.50
2023-07-18T10:02:59.780Z,49.49
2023-07-18T10:08:07.805Z,48.68
2023-07-18T10:13:10.637Z,48.83
2023-07-18T10:18:18.348Z,46.60
2023-07-18T10:23:40.291Z,46.52
2023-07-18T10:28:47.748Z,46.98
2023-07-18T10:34:07.261Z,47.00
2023-07-18T10:39:15.546Z,45.14
2023-07-18T10:44:18.292Z,45.24
2023-07-18T10:49:26.864Z,45.81
2023-07-18T10:54:29.628Z,46.18
2023-07-18T10:59:32.409Z,44.61
2023-07-18T11:04:35.146Z,43.30
2023-07-18T11:09:38.263Z,43.81
2023-07-18T11:14:41.732Z,43.44
2023-07-18T11:19:45.092Z,43.08
2023-07-18T11:24:47.956Z,42.41
2023-07-18T11:30:01.822Z,43.07
2023-07-18T11:35:07.786Z,43.48
2023-07-18T11:40:11.723Z,43.51
2023-07-18T11:45:24.646Z,43.61
2023-07-18T11:50:30.285Z,43.06
2023-07-18T11:55:33.684Z,40.89
2023-07-18T12:00:37.774Z,41.73
2023-07-18T12:05:40.530Z,42.10
2023-07-18T12:10:50.213Z,40.15
2023-07-18T12:15:59.427Z,40.63
2023-07-18T12:21:02.316Z,41.67
2023-07-18T12:26:05.153Z,41.51
2023-07-18T12:31:09.659Z,41.83
2023-07-18T12:36:14.119Z,43.24
2023-07-18T12:41:18.713Z,43.47
2023-07-18T12:46:27.861Z,43.60
2023-07-18T12:51:30.735Z,44.57
2023-07-18T12:56:34.926Z,45.85
2023-07-18T13:01:39.028Z,46.71
2023-07-18T13:06:41.856Z,47.38
2023-07-18T13:11:45.739Z,47.43
2023-07-18T13:16:48.724Z,46.95
2023-07-18T13:21:52.008Z,46.54
2023-07-18T13:26:54.872Z,46.27
2023-07-18T13:31:57.757Z,45.97
2023-07-18T13:37:00.693Z,46.37
2023-07-18T13:42:04.101Z,47.19
2023-07-18T13:47:07.468Z,46.95
2023-07-18T13:52:10.519Z,46.08
2023-07-18T13:57:13.261Z,43.46
2023-07-18T14:02:16.145Z,42.41
2023-07-18T14:07:19.506Z,42.07
2023-07-18T14:12:22.236Z,42.35
2023-07-18T14:17:26.119Z,43.75
2023-07-18T14:22:30.669Z,43.10
2023-07-18T14:27:33.776Z,42.09
2023-07-18T14:32:39.696Z,41.33
2023-07-18T14:37:42.567Z,41.91
2023-07-18T14:42:45.937Z,42.21
2023-07-18T14:47:48.970Z,41.95
2023-07-18T14:52:51.716Z,42.39
2023-07-18T14:57:54.585Z,42.95
2023-07-18T15:02:57.408Z,43.02
2023-07-18T15:08:00.346Z,42.84
2023-07-18T15:13:03.863Z,43.13
2023-07-18T15:18:07.385Z,42.08
2023-07-18T15:23:10.287Z,42.42
2023-07-18T15:28:16.308Z,42.66
2023-07-18T15:33:25.528Z,43.37
2023-07-18T15:38:29.800Z,43.74
2023-07-18T15:43:33.387Z,44.06
2023-07-18T15:48:37.433Z,44.10
2023-07-18T15:53:40.245Z,44.82
2023-07-18T15:58:43.002Z,45.20
2023-07-18T16:03:45.854Z,45.79
2023-07-18T16:08:49.042Z,46.63
2023-07-18T16:13:53.491Z,47.34
2023-07-18T16:18:59.975Z,47.61
2023-07-18T16:24:03.125Z,47.49
2023-07-18T16:29:05.937Z,47.39
2023-07-18T16:34:08.729Z,47.48
2023-07-18T16:39:11.495Z,47.89
2023-07-18T16:44:14.840Z,48.23
2023-07-18T16:49:17.678Z,49.13
2023-07-18T16:54:20.731Z,49.25
2023-07-18T16:59:23.576Z,49.59
2023-07-18T17:04:26.514Z,49.79
2023-07-18T17:09:29.399Z,50.59
2023-07-18T17:14:32.151Z,48.93
2023-07-18T17:19:39.477Z,43.37
2023-07-18T17:24:52.565Z,38.76
2023-07-18T17:29:55.384Z,36.12
2023-07-18T17:34:58.237Z,37.25
2023-07-18T17:40:02.146Z,38.81
2023-07-18T17:45:06.357Z,37.46
2023-07-18T17:50:09.518Z,37.18
2023-07-18T17:55:12.809Z,37.37
2023-07-18T18:00:16.035Z,37.63
2023-07-18T18:05:46.778Z,39.01
2023-07-18T18:10:49.955Z,40.29
2023-07-18T18:16:06.497Z,42.01
2023-07-18T18:21:12.214Z,43.60
2023-07-18T18:26:15.109Z,45.41
2023-07-18T18:31:18.099Z,47.28
2023-07-18T18:36:24.134Z,47.86
2023-07-18T18:41:27.372Z,48.59
2023-07-18T18:46:30.181Z,48.65
2023-07-18T18:51:33.402Z,48.77
2023-07-18T18:56:37.769Z,49.62
2023-07-18T19:01:40.639Z,49.88
2023-07-18T19:06:44.462Z,51.50
2023-07-18T19:11:47.198Z,52.25
2023-07-18T19:16:50.062Z,53.13
2023-07-18T19:21:52.854Z,56.35
2023-07-18T19:26:58.083Z,56.83
2023-07-18T19:32:01.585Z,57.87
2023-07-18T19:37:05.675Z,59.05
2023-07-18T19:42:08.563Z,59.60
2023-07-18T19:47:11.615Z,60.30
2023-07-18T19:52:15.243Z,61.27
2023-07-18T19:57:18.205Z,69.91
2023-07-18T20:02:21.221Z,62.42
2023-07-18T20:07:24.106Z,54.51
2023-07-18T20:12:26.846Z,56.78
2023-07-18T20:17:29.669Z,59.26
2023-07-18T20:22:32.447Z,61.01
2023-07-18T20:27:38.747Z,61.79
2023-07-18T20:32:41.964Z,69.16
2023-07-18T20:37:47.790Z,60.16
2023-07-18T20:42:52.103Z,55.87
2023-07-18T20:47:55.086Z,59.07
2023-07-18T20:52:57.968Z,61.14
2023-07-18T20:58:01.053Z,67.32
2023-07-18T21:03:05.217Z,58.81
2023-07-18T21:08:08.200Z,55.55
2023-07-18T21:13:11.141Z,59.26
2023-07-18T21:18:14.021Z,61.46
2023-07-18T21:23:16.901Z,67.36
2023-07-18T21:28:19.696Z,58.23
2023-07-18T21:33:22.834Z,56.61
2023-07-18T21:38:26.109Z,60.14
2023-07-18T21:43:29.034Z,65.96
2023-07-18T21:48:32.034Z,58.17
2023-07-18T21:53:35.515Z,57.02
2023-07-18T21:58:38.386Z,60.69
2023-07-18T22:03:41.543Z,65.07
2023-07-18T22:08:44.433Z,63.76
2023-07-18T22:13:48.647Z,56.10
2023-07-18T22:18:51.589Z,59.11
2023-07-18T22:23:54.841Z,62.62
2023-07-18T22:28:57.963Z,67.00
2023-07-18T22:34:00.668Z,58.26
2023-07-18T22:39:04.730Z,57.32
2023-07-18T22:44:07.599Z,60.97
2023-07-18T22:49:10.787Z,66.41
2023-07-18T22:54:13.537Z,57.64
2023-07-18T22:59:16.267Z,57.67
2023-07-18T23:04:18.992Z,60.33
2023-07-18T23:09:21.859Z,67.73
2023-07-18T23:14:25.100Z,59.23
2023-07-18T23:19:27.866Z,57.29
2023-07-18T23:24:31.081Z,60.87
2023-07-18T23:29:33.858Z,67.33
2023-07-18T23:34:36.954Z,59.85
2023-07-18T23:39:39.688Z,56.98
2023-07-18T23:44:43.255Z,61.18
2023-07-18T23:49:46.037Z,67.22
2023-07-18T23:54:49.175Z,59.10
2023-07-18T23:59:51.919Z,57.15
